Time;durP1;ratioP1;P1;durP2;ratioP2;P2;SDS_P1;SDS_P2;PMS_P1;PMS_P2;Temp;Humidity;BMP_temperature;BMP_pressure;BME280_temperature;BME280_humidity;BME280_pressure;Samples;Min_cycle;Max_cycle;Signal;HPM_P1;HPM_P2
2022/06/15 00:00:31;;;;;;;4.80;4.60;;;;;;;-143.83;100.00;62900.06;5039121;28;20037;-59
2022/06/15 00:02:57;;;;;;;4.63;4.43;;;;;;;-143.83;100.00;62900.06;5051930;28;20025;-60
2022/06/15 00:05:22;;;;;;;4.78;4.57;;;;;;;-143.83;100.00;62900.06;5051047;28;20035;-60
2022/06/15 00:07:48;;;;;;;4.70;4.50;;;;;;;-143.83;100.00;62900.06;5050310;28;20033;-60
2022/06/15 00:10:13;;;;;;;4.88;4.68;;;;;;;-143.83;100.00;62900.06;5039789;28;20047;-60
2022/06/15 00:12:39;;;;;;;4.80;4.60;;;;;;;-143.83;100.00;62900.06;5051785;28;20083;-60
2022/06/15 00:15:06;;;;;;;4.85;4.65;;;;;;;-143.83;100.00;62900.06;5052125;28;20040;-60
2022/06/15 00:17:32;;;;;;;4.80;4.60;;;;;;;-143.83;100.00;62900.06;5050562;28;20071;-60
2022/06/15 00:19:57;;;;;;;4.85;4.65;;;;;;;-143.83;100.00;62900.06;5052261;28;20049;-60
2022/06/15 00:22:23;;;;;;;4.85;4.65;;;;;;;-143.83;100.00;62900.06;5050746;28;20385;-60
2022/06/15 00:24:48;;;;;;;4.72;4.53;;;;;;;-143.83;100.00;62900.06;5042956;28;20075;-59
2022/06/15 00:27:14;;;;;;;4.65;4.45;;;;;;;-143.83;100.00;62900.06;5046457;28;20016;-60
2022/06/15 00:29:39;;;;;;;4.80;4.60;;;;;;;-143.83;100.00;62900.06;5051257;28;20082;-60
2022/06/15 00:32:05;;;;;;;4.72;4.53;;;;;;;-143.83;100.00;62900.06;5058036;28;20119;-59
2022/06/15 00:34:31;;;;;;;4.80;4.60;;;;;;;-143.83;100.00;62900.06;5051037;28;20021;-60
2022/06/15 00:36:56;;;;;;;4.78;4.57;;;;;;;-143.83;100.00;62900.06;5058927;28;20533;-60
2022/06/15 00:39:22;;;;;;;4.90;4.70;;;;;;;-143.83;100.00;62900.06;5050696;28;20379;-59
2022/06/15 00:41:48;;;;;;;4.82;4.63;;;;;;;-143.83;100.00;62900.06;5049608;28;20078;-61
2022/06/15 00:44:19;;;;;;;4.85;4.65;;;;;;;-143.83;100.00;62900.06;5050319;28;20017;-60
2022/06/15 00:46:47;;;;;;;4.55;4.35;;;;;;;-143.83;100.00;62900.06;5051316;28;20052;-59
2022/06/15 00:49:24;;;;;;;4.82;4.63;;;;;;;-143.83;100.00;62900.06;5050171;28;20404;-60
2022/06/15 00:51:53;;;;;;;4.70;4.50;;;;;;;-143.83;100.00;62900.06;5039952;28;20016;-61
2022/06/15 00:54:21;;;;;;;4.70;4.50;;;;;;;-143.83;100.00;62900.06;5051404;28;20511;-60
2022/06/15 00:56:47;;;;;;;4.47;4.28;;;;;;;-143.83;100.00;62900.06;5045846;28;20040;-60
2022/06/15 00:59:12;;;;;;;4.80;4.60;;;;;;;-143.83;100.00;62900.06;5051271;28;20017;-60
2022/06/15 01:01:40;;;;;;;4.70;4.50;;;;;;;-143.83;100.00;62900.06;5051366;28;20542;-59
2022/06/15 01:04:05;;;;;;;4.47;4.28;;;;;;;-143.83;100.00;62900.06;5050659;28;20040;-59
2022/06/15 01:06:51;;;;;;;4.70;4.50;;;;;;;-143.83;100.00;62900.06;5046577;28;20025;-59
2022/06/15 01:09:21;;;;;;;4.80;4.60;;;;;;;-143.83;100.00;62900.06;5051339;28;20025;-60
2022/06/15 01:11:55;;;;;;;4.70;4.50;;;;;;;-143.83;100.00;62900.06;5038691;28;20033;-61
2022/06/15 01:14:41;;;;;;;4.60;4.40;;;;;;;-143.83;100.00;62900.06;5049478;28;20475;-60
2022/06/15 01:17:26;;;;;;;4.90;4.70;;;;;;;-143.83;100.00;62900.06;5051396;28;20037;-61
2022/06/15 01:20:16;;;;;;;4.80;4.60;;;;;;;-143.83;100.00;62900.06;5055370;28;20036;-59
2022/06/15 01:22:59;;;;;;;4.70;4.50;;;;;;;-143.83;100.00;62900.06;5051328;28;20020;-59
2022/06/15 01:25:31;;;;;;;4.70;4.50;;;;;;;-143.83;100.00;62900.06;5056864;28;20013;-60
2022/06/15 01:28:14;;;;;;;4.80;4.60;;;;;;;-143.83;100.00;62900.06;5042249;28;20099;-60
2022/06/15 01:30:53;;;;;;;4.63;4.43;;;;;;;-143.83;100.00;62900.06;5053847;28;20504;-60
2022/06/15 01:33:33;;;;;;;4.63;4.43;;;;;;;-143.83;100.00;62900.06;5054870;28;20214;-60
2022/06/15 01:36:02;;;;;;;4.47;4.28;;;;;;;-143.83;100.00;62900.06;5054710;28;20032;-59
2022/06/15 01:38:33;;;;;;;4.70;4.50;;;;;;;-143.83;100.00;62900.06;5054878;28;20496;-60
2022/06/15 01:41:10;;;;;;;4.57;4.38;;;;;;;-143.83;100.00;62900.06;5058925;28;20496;-59
2022/06/15 01:43:43;;;;;;;4.75;4.55;;;;;;;-143.83;100.00;62900.06;5054734;28;20480;-61
2022/06/15 01:46:09;;;;;;;4.68;4.47;;;;;;;-143.83;100.00;62900.06;5051506;28;20469;-60
2022/06/15 01:48:38;;;;;;;4.70;4.50;;;;;;;-143.83;100.00;62900.06;5045258;28;20055;-60
2022/06/15 01:51:10;;;;;;;4.70;4.50;;;;;;;-143.83;100.00;62900.06;5054357;28;20480;-61
2022/06/15 01:53:52;;;;;;;4.65;4.45;;;;;;;-143.83;100.00;62900.06;5042494;28;20025;-61
2022/06/15 01:56:23;;;;;;;4.50;4.30;;;;;;;-143.83;100.00;62900.06;5053603;28;20068;-59
2022/06/15 01:58:56;;;;;;;4.60;4.40;;;;;;;-143.83;100.00;62900.06;5041153;28;20112;-60
2022/06/15 02:01:35;;;;;;;4.60;4.40;;;;;;;-143.83;100.00;62900.06;5054214;28;20498;-60
2022/06/15 02:04:34;;;;;;;4.60;4.40;;;;;;;-143.83;100.00;62900.06;5053282;28;20021;-60
2022/06/15 02:07:27;;;;;;;4.70;4.50;;;;;;;-143.83;100.00;62900.06;5053709;28;20040;-61
2022/06/15 02:09:58;;;;;;;4.57;4.38;;;;;;;-143.83;100.00;62900.06;5054144;28;20051;-59
2022/06/15 02:12:33;;;;;;;4.60;4.40;;;;;;;-143.83;100.00;62900.06;5044357;28;20025;-60
2022/06/15 02:15:02;;;;;;;4.80;4.60;;;;;;;-143.83;100.00;62900.06;5050216;28;20029;-61
2022/06/15 02:17:33;;;;;;;4.55;4.35;;;;;;;-143.83;100.00;62900.06;5053918;28;20617;-61
2022/06/15 02:20:08;;;;;;;4.60;4.40;;;;;;;-143.83;100.00;62900.06;5054124;28;20088;-60
2022/06/15 02:22:39;;;;;;;4.80;4.60;;;;;;;-143.83;100.00;62900.06;5045136;28;20029;-60
2022/06/15 02:25:11;;;;;;;4.68;4.47;;;;;;;-143.83;100.00;62900.06;5053951;28;20025;-60
2022/06/15 02:27:39;;;;;;;4.65;4.45;;;;;;;-143.83;100.00;62900.06;5053610;28;20134;-61
2022/06/15 02:30:09;;;;;;;4.50;4.30;;;;;;;-143.83;100.00;62900.06;5043675;28;20036;-61
2022/06/15 02:32:36;;;;;;;4.43;4.22;;;;;;;-143.83;100.00;62900.06;5053962;28;20124;-61
2022/06/15 02:35:03;;;;;;;4.70;4.50;;;;;;;-143.83;100.00;62900.06;5053679;28;20029;-60
2022/06/15 02:37:28;;;;;;;4.70;4.50;;;;;;;-143.83;100.00;62900.06;5052568;28;20029;-59
2022/06/15 02:39:54;;;;;;;4.70;4.50;;;;;;;-143.83;100.00;62900.06;5041780;28;20094;-59
2022/06/15 02:42:31;;;;;;;4.53;4.32;;;;;;;-143.83;100.00;62900.06;5053642;28;20029;-60
2022/06/15 02:45:06;;;;;;;4.75;4.55;;;;;;;-143.83;100.00;62900.06;5048198;28;20025;-60
2022/06/15 02:47:35;;;;;;;4.72;4.53;;;;;;;-143.83;100.00;62900.06;5046480;28;20065;-60
2022/06/15 02:50:03;;;;;;;4.80;4.60;;;;;;;-143.83;100.00;62900.06;5042837;28;20037;-59
2022/06/15 02:52:34;;;;;;;4.97;4.78;;;;;;;-143.83;100.00;62900.06;5053126;28;20510;-60
2022/06/15 02:55:00;;;;;;;4.93;4.72;;;;;;;-143.83;100.00;62900.06;5052579;28;20084;-60
2022/06/15 02:57:26;;;;;;;5.07;4.88;;;;;;;-143.83;100.00;62900.06;5053302;28;20500;-59
2022/06/15 02:59:52;;;;;;;5.13;4.93;;;;;;;-143.83;100.00;62900.06;5053444;28;20040;-60
2022/06/15 03:02:19;;;;;;;5.15;4.95;;;;;;;-143.83;100.00;62900.06;5051627;28;20457;-59
2022/06/15 03:04:46;;;;;;;5.30;5.10;;;;;;;-143.83;100.00;62900.06;5057795;28;20081;-60
2022/06/15 03:07:13;;;;;;;5.28;5.07;;;;;;;-143.83;100.00;62900.06;5053710;28;20111;-59
2022/06/15 03:09:39;;;;;;;5.40;5.20;;;;;;;-143.83;100.00;62900.06;5053205;28;20060;-60
2022/06/15 03:12:05;;;;;;;5.20;5.00;;;;;;;-143.83;100.00;62900.06;5048820;28;20449;-59
2022/06/15 03:14:31;;;;;;;5.50;5.30;;;;;;;-143.83;100.00;62900.06;5052868;28;20024;-59
2022/06/15 03:16:58;;;;;;;5.45;5.25;;;;;;;-143.83;100.00;62900.06;5052742;28;20052;-59
2022/06/15 03:19:24;;;;;;;5.60;5.40;;;;;;;-143.83;100.00;62900.06;5046529;28;20025;-59
2022/06/15 03:21:49;;;;;;;5.60;5.40;;;;;;;-143.83;100.00;62900.06;5053574;28;20055;-60
2022/06/15 03:24:15;;;;;;;5.50;5.30;;;;;;;-143.83;100.00;62900.06;5053041;28;20028;-59
2022/06/15 03:26:40;;;;;;;5.55;5.35;;;;;;;-143.83;100.00;62900.06;5052754;28;20492;-59
2022/06/15 03:29:07;;;;;;;5.65;5.45;;;;;;;-143.83;100.00;62900.06;5051380;28;20036;-60
2022/06/15 03:31:32;;;;;;;5.57;5.38;;;;;;;-143.83;100.00;62900.06;5052945;28;20017;-59
2022/06/15 03:33:58;;;;;;;5.70;5.50;;;;;;;-143.83;100.00;62900.06;5052509;28;20393;-59
2022/06/15 03:36:23;;;;;;;5.72;5.53;;;;;;;-143.83;100.00;62900.06;5045627;28;20025;-61
2022/06/15 03:38:49;;;;;;;5.75;5.55;;;;;;;-143.83;100.00;62900.06;5049497;28;20020;-60
2022/06/15 03:41:16;;;;;;;5.88;5.68;;;;;;;-143.83;100.00;62900.06;5051797;28;20167;-61
2022/06/15 03:43:41;;;;;;;5.93;5.72;;;;;;;-143.83;100.00;62900.06;5050954;28;20058;-61
2022/06/15 03:46:07;;;;;;;5.90;5.70;;;;;;;-143.83;100.00;62900.06;5034347;28;20108;-60
2022/06/15 03:48:32;;;;;;;5.90;5.70;;;;;;;-143.83;100.00;62900.06;5038548;28;20172;-61
2022/06/15 03:50:58;;;;;;;6.10;5.90;;;;;;;-143.83;100.00;62900.06;5052465;28;20155;-61
2022/06/15 03:53:24;;;;;;;5.80;5.60;;;;;;;-143.83;100.00;62900.06;5052277;28;20468;-60
2022/06/15 03:55:50;;;;;;;5.97;5.78;;;;;;;-143.83;100.00;62900.06;5051943;28;20116;-62
2022/06/15 03:58:19;;;;;;;5.95;5.75;;;;;;;-143.83;100.00;62900.06;5051781;28;20039;-59
2022/06/15 04:00:44;;;;;;;6.07;5.88;;;;;;;-143.83;100.00;62900.06;5038432;28;20033;-60
2022/06/15 04:03:10;;;;;;;5.95;5.75;;;;;;;-143.83;100.00;62900.06;5045214;28;20032;-60
2022/06/15 04:05:52;;;;;;;6.10;5.90;;;;;;;-143.83;100.00;62900.06;5051471;28;20029;-59
2022/06/15 04:08:34;;;;;;;6.03;5.82;;;;;;;-143.83;100.00;62900.06;5040599;28;20028;-59
2022/06/15 04:11:58;;;;;;;6.10;5.90;;;;;;;-143.83;100.00;62900.06;5051763;28;20108;-60
2022/06/15 04:13:58;;;;;;;6.18;5.97;;;;;;;-143.83;100.00;62900.06;5050708;28;20036;-60
2022/06/15 04:16:23;;;;;;;6.20;6.00;;;;;;;-143.83;100.00;62900.06;5043527;28;20515;-59
2022/06/15 04:18:49;;;;;;;6.20;6.00;;;;;;;-143.83;100.00;62900.06;5035666;28;20028;-60
2022/06/15 04:21:14;;;;;;;6.18;5.97;;;;;;;-143.83;100.00;62900.06;5050619;28;20504;-60
2022/06/15 04:23:40;;;;;;;6.20;6.00;;;;;;;-143.83;100.00;62900.06;5051738;28;20029;-61
2022/06/15 04:26:05;;;;;;;6.07;5.88;;;;;;;-143.83;100.00;62900.06;5051540;28;20033;-60
2022/06/15 04:28:34;;;;;;;6.15;5.95;;;;;;;-143.83;100.00;62900.06;5048789;28;20361;-61
2022/06/15 04:30:59;;;;;;;6.10;5.90;;;;;;;-143.83;100.00;62900.06;5065579;28;20028;-59
2022/06/15 04:33:28;;;;;;;6.13;5.93;;;;;;;-143.83;100.00;62900.06;5051461;28;20480;-60
2022/06/15 04:35:54;;;;;;;5.88;5.68;;;;;;;-143.83;100.00;62900.06;5043059;28;20036;-60
2022/06/15 04:38:20;;;;;;;6.00;5.80;;;;;;;-143.83;100.00;62900.06;5050618;28;20033;-60
2022/06/15 04:40:46;;;;;;;6.13;5.93;;;;;;;-143.83;100.00;62900.06;5049892;28;20549;-60
2022/06/15 04:43:11;;;;;;;6.20;6.00;;;;;;;-143.83;100.00;62900.06;5051558;28;20020;-60
2022/06/15 04:45:37;;;;;;;6.10;5.90;;;;;;;-143.83;100.00;62900.06;5048278;28;20048;-60
2022/06/15 04:48:03;;;;;;;6.18;5.97;;;;;;;-143.83;100.00;62900.06;5054626;28;20136;-60
2022/06/15 04:50:29;;;;;;;5.95;5.75;;;;;;;-143.83;100.00;62900.06;5045709;28;20078;-60
2022/06/15 04:52:55;;;;;;;6.47;6.18;;;;;;;-143.83;100.00;62900.06;5052772;28;20021;-61
2022/06/15 04:55:22;;;;;;;6.03;5.82;;;;;;;-143.83;100.00;62900.06;5054164;28;20029;-61
2022/06/15 04:57:53;;;;;;;6.35;6.07;;;;;;;-143.83;100.00;62900.06;5052303;28;20044;-61
2022/06/15 05:00:19;;;;;;;6.03;5.82;;;;;;;-143.83;100.00;62900.06;5038663;28;20056;-61
2022/06/15 05:02:45;;;;;;;6.10;5.90;;;;;;;-143.83;100.00;62900.06;5054972;28;20082;-60
2022/06/15 05:05:11;;;;;;;6.22;6.00;;;;;;;-143.83;100.00;62900.06;5051709;28;20108;-61
2022/06/15 05:07:36;;;;;;;6.40;6.10;;;;;;;-143.83;100.00;62900.06;5041942;28;20060;-60
2022/06/15 05:10:04;;;;;;;6.00;5.80;;;;;;;-143.83;100.00;62900.06;5051732;28;20104;-60
2022/06/15 05:12:29;;;;;;;6.45;6.15;;;;;;;-143.83;100.00;62900.06;5052469;28;20411;-60
2022/06/15 05:14:55;;;;;;;6.50;6.20;;;;;;;-143.83;100.00;62900.06;5055304;28;20032;-60
2022/06/15 05:17:23;;;;;;;6.50;6.20;;;;;;;-143.83;100.00;62900.06;5048580;28;20481;-60
2022/06/15 05:19:49;;;;;;;6.43;6.13;;;;;;;-143.83;100.00;62900.06;5053489;28;20079;-62
2022/06/15 05:22:15;;;;;;;6.15;5.95;;;;;;;-143.83;100.00;62900.06;5053595;28;20385;-61
2022/06/15 05:24:40;;;;;;;5.90;5.70;;;;;;;-143.83;100.00;62900.06;5054564;28;20021;-61
2022/06/15 05:27:07;;;;;;;5.85;5.65;;;;;;;-143.83;100.00;62900.06;5055080;28;20040;-62
2022/06/15 05:29:35;;;;;;;5.82;5.63;;;;;;;-143.83;100.00;62900.06;5054008;28;20031;-60
2022/06/15 05:32:02;;;;;;;5.85;5.65;;;;;;;-143.83;100.00;62900.06;5054928;28;20423;-61
2022/06/15 05:34:28;;;;;;;5.80;5.60;;;;;;;-143.83;100.00;62900.06;5054871;28;20426;-61
2022/06/15 05:36:53;;;;;;;5.60;5.40;;;;;;;-143.83;100.00;62900.06;5047935;28;20031;-61
2022/06/15 05:39:19;;;;;;;5.85;5.65;;;;;;;-143.83;100.00;62900.06;5052778;28;21173;-61
2022/06/15 05:41:44;;;;;;;6.00;5.80;;;;;;;-143.83;100.00;62900.06;5054441;28;20435;-60
2022/06/15 05:46:40;;;;;;;6.50;6.20;;;;;;;-143.83;100.00;62900.06;5043574;28;20396;-60
2022/06/15 05:49:06;;;;;;;6.28;6.05;;;;;;;-143.83;100.00;62900.06;5054293;28;20053;-60
2022/06/15 05:51:32;;;;;;;6.10;5.90;;;;;;;-143.83;100.00;62900.06;5054713;28;20082;-61
2022/06/15 05:53:58;;;;;;;6.20;6.00;;;;;;;-143.83;100.00;62900.06;5054404;28;20476;-61
2022/06/15 05:56:24;;;;;;;6.28;6.05;;;;;;;-143.83;100.00;62900.06;5042919;28;20021;-61
2022/06/15 05:58:50;;;;;;;6.45;6.15;;;;;;;-143.83;100.00;62900.06;5052606;28;20387;-61
2022/06/15 06:01:37;;;;;;;6.10;5.90;;;;;;;-143.83;100.00;62900.06;5054289;28;20047;-61
2022/06/15 06:04:02;;;;;;;6.00;5.80;;;;;;;-143.83;100.00;62900.06;5053326;28;20033;-59
2022/06/15 06:06:29;;;;;;;6.30;6.00;;;;;;;-143.83;100.00;62900.06;5047239;28;20508;-61
2022/06/15 06:08:55;;;;;;;6.13;5.93;;;;;;;-143.83;100.00;62900.06;5053990;28;20549;-60
2022/06/15 06:11:22;;;;;;;6.03;5.82;;;;;;;-143.83;100.00;62900.06;5053807;28;20025;-61
2022/06/15 06:13:48;;;;;;;6.28;6.03;;;;;;;-143.83;100.00;62900.06;5041472;28;20108;-61
2022/06/15 06:16:14;;;;;;;6.40;6.10;;;;;;;-143.83;100.00;62900.06;5052122;28;20024;-60
2022/06/15 06:18:40;;;;;;;6.13;5.93;;;;;;;-143.83;100.00;62900.06;5052916;28;20673;-61
2022/06/15 06:21:06;;;;;;;6.30;6.05;;;;;;;-143.83;100.00;62900.06;5053742;28;20039;-61
2022/06/15 06:23:33;;;;;;;6.53;6.22;;;;;;;-143.83;100.00;62900.06;5053998;28;20028;-63
2022/06/15 06:25:58;;;;;;;6.80;6.50;;;;;;;-143.83;100.00;62900.06;5044203;28;20032;-61
2022/06/15 06:28:31;;;;;;;6.15;5.95;;;;;;;-143.83;100.00;62900.06;5045740;28;20021;-60
2022/06/15 06:30:58;;;;;;;6.20;6.00;;;;;;;-143.83;100.00;62900.06;5046082;28;20029;-60
2022/06/15 06:33:29;;;;;;;6.40;6.10;;;;;;;-143.83;100.00;62900.06;5044607;28;20312;-60
2022/06/15 06:35:57;;;;;;;6.63;6.32;;;;;;;-143.83;100.00;62900.06;5048743;28;20025;-60
2022/06/15 06:38:24;;;;;;;6.50;6.20;;;;;;;-143.83;100.00;62900.06;5053640;28;20116;-61
2022/06/15 06:40:51;;;;;;;6.53;6.22;;;;;;;-143.83;100.00;62900.06;5057813;28;20054;-59
2022/06/15 06:43:17;;;;;;;6.43;6.13;;;;;;;-143.83;100.00;62900.06;5051948;28;20037;-62
2022/06/15 06:45:43;;;;;;;6.80;6.50;;;;;;;-143.83;100.00;62900.06;5045480;28;20056;-61
2022/06/15 06:48:09;;;;;;;6.57;6.28;;;;;;;-143.83;100.00;62900.06;5058282;28;20057;-59
2022/06/15 06:50:40;;;;;;;6.78;6.47;;;;;;;-143.83;100.00;62900.06;5044700;28;20150;-60
2022/06/15 06:53:06;;;;;;;6.57;6.28;;;;;;;-143.83;100.00;62900.06;5048921;28;21198;-60
2022/06/15 06:55:31;;;;;;;6.90;6.60;;;;;;;-143.83;100.00;62900.06;5050556;28;20036;-60
2022/06/15 06:57:59;;;;;;;5.78;5.57;;;;;;;-143.83;100.00;62900.06;5053754;28;20033;-60
2022/06/15 07:00:25;;;;;;;6.47;6.18;;;;;;;-143.83;100.00;62900.06;5057664;28;20044;-61
2022/06/15 07:02:51;;;;;;;6.68;6.38;;;;;;;-143.83;100.00;62900.06;5052604;28;20031;-60
2022/06/15 07:05:17;;;;;;;6.47;6.18;;;;;;;-143.83;100.00;62900.06;5052455;28;20028;-61
2022/06/15 07:07:43;;;;;;;6.35;6.07;;;;;;;-143.83;100.00;62900.06;5048458;28;20033;-61
2022/06/15 07:10:09;;;;;;;6.40;6.10;;;;;;;-143.83;100.00;62900.06;5039070;28;20028;-61
2022/06/15 07:12:36;;;;;;;6.13;5.93;;;;;;;-143.83;100.00;62900.06;5040137;28;20522;-60
2022/06/15 07:15:05;;;;;;;6.10;5.90;;;;;;;-143.83;100.00;62900.06;5042125;28;20040;-60
2022/06/15 07:17:31;;;;;;;6.00;5.80;;;;;;;-143.83;100.00;62900.06;5049901;28;20120;-60
2022/06/15 07:19:56;;;;;;;6.07;5.88;;;;;;;-143.83;100.00;62900.06;5048044;28;20112;-61
2022/06/15 07:22:22;;;;;;;6.05;5.85;;;;;;;-143.83;100.00;62900.06;5045538;28;20503;-59
2022/06/15 07:24:48;;;;;;;6.00;5.80;;;;;;;-143.83;100.00;62900.06;5041380;28;20024;-60
2022/06/15 07:27:15;;;;;;;6.55;6.25;;;;;;;-143.83;100.00;62900.06;5045427;28;20490;-60
2022/06/15 07:29:42;;;;;;;6.50;6.20;;;;;;;-143.83;100.00;62900.06;5038229;28;20048;-60
2022/06/15 07:32:07;;;;;;;6.00;5.80;;;;;;;-143.83;100.00;62900.06;5051408;28;20037;-59
2022/06/15 07:34:34;;;;;;;6.00;5.80;;;;;;;-143.83;100.00;62900.06;5049688;28;20040;-59
2022/06/15 07:36:59;;;;;;;6.18;5.97;;;;;;;-143.83;100.00;62900.06;5052961;28;20025;-60
2022/06/15 07:39:27;;;;;;;6.15;5.90;;;;;;;-143.83;100.00;62900.06;5040795;28;20469;-60
2022/06/15 07:41:55;;;;;;;5.90;5.70;;;;;;;-143.83;100.00;62900.06;5045551;28;20024;-60
2022/06/15 07:44:22;;;;;;;5.65;5.45;;;;;;;-143.83;100.00;62900.06;5046712;28;20032;-59
2022/06/15 07:46:48;;;;;;;5.85;5.65;;;;;;;-143.83;100.00;62900.06;5039496;28;20037;-59
2022/06/15 07:52:03;;;;;;;;;;;;;;;-143.83;100.00;62900.06;5048117;28;20036;-60
2022/06/15 07:54:29;;;;;;;5.65;5.45;;;;;;;-143.83;100.00;62900.06;5058350;28;19965;-61
2022/06/15 07:56:56;;;;;;;5.80;5.60;;;;;;;-143.83;100.00;62900.06;5053532;28;20025;-62
2022/06/15 07:59:22;;;;;;;5.90;5.70;;;;;;;-143.83;100.00;62900.06;5039570;28;20036;-62
2022/06/15 08:01:49;;;;;;;5.70;5.50;;;;;;;-143.83;100.00;62900.06;5046498;28;20025;-62
2022/06/15 08:04:15;;;;;;;5.80;5.60;;;;;;;-143.83;100.00;62900.06;5038314;28;20016;-61
2022/06/15 08:06:43;;;;;;;5.90;5.70;;;;;;;-143.83;100.00;62900.06;5053911;28;20028;-63
2022/06/15 08:09:13;;;;;;;5.82;5.63;;;;;;;-143.83;100.00;62900.06;5047043;28;20032;-63
2022/06/15 08:12:11;;;;;;;5.70;5.50;;;;;;;-143.83;100.00;62900.06;5046835;28;20032;-62
2022/06/15 08:14:25;;;;;;;5.78;5.57;;;;;;;-143.83;100.00;62900.06;5045318;28;20032;-62
2022/06/15 08:16:50;;;;;;;5.70;5.50;;;;;;;-143.83;100.00;62900.06;5045093;28;20458;-63
2022/06/15 08:19:16;;;;;;;5.75;5.55;;;;;;;-143.83;100.00;62900.06;5050246;28;20763;-62
2022/06/15 08:21:41;;;;;;;6.00;5.80;;;;;;;-143.83;100.00;62900.06;5044247;28;20037;-61
2022/06/15 08:24:07;;;;;;;5.75;5.55;;;;;;;-143.83;100.00;62900.06;5047204;28;20106;-62
2022/06/15 08:26:36;;;;;;;5.75;5.55;;;;;;;-143.83;100.00;62900.06;5041841;28;20115;-64
2022/06/15 08:29:07;;;;;;;5.70;5.50;;;;;;;-143.83;100.00;62900.06;5041121;28;20059;-72
2022/06/15 08:31:33;;;;;;;5.60;5.40;;;;;;;-143.83;100.00;62900.06;5056087;28;20046;-61
2022/06/15 08:33:59;;;;;;;5.72;5.53;;;;;;;-143.83;100.00;62900.06;5036414;28;58195;-61
2022/06/15 08:36:24;;;;;;;5.75;5.55;;;;;;;-143.83;100.00;62900.06;5024493;28;20480;-61
2022/06/15 08:38:51;;;;;;;5.75;5.55;;;;;;;-143.83;100.00;62900.06;5022832;28;53680;-61
2022/06/15 08:41:35;;;;;;;5.60;5.40;;;;;;;-143.83;100.00;62900.06;5027121;28;20037;-61
2022/06/15 08:44:24;;;;;;;5.85;5.65;;;;;;;-143.83;100.00;62900.06;5024567;28;20039;-61
2022/06/15 08:47:10;;;;;;;5.57;5.38;;;;;;;-143.83;100.00;62900.06;5027538;28;20519;-61
2022/06/15 08:50:01;;;;;;;5.78;5.57;;;;;;;-143.83;100.00;62900.06;5036197;28;20052;-61
2022/06/15 08:52:41;;;;;;;5.80;5.60;;;;;;;-143.83;100.00;62900.06;5023146;28;20041;-61
2022/06/15 08:55:15;;;;;;;5.60;5.40;;;;;;;-143.83;100.00;62900.06;5017852;28;20038;-63
2022/06/15 08:57:40;;;;;;;;;;;;;;;-143.83;100.00;62900.06;5021425;28;20027;-62
2022/06/15 09:00:24;;;;;;;5.65;5.45;;;;;;;-143.83;100.00;62900.06;5028066;28;19921;-63
2022/06/15 09:02:52;;;;;;;5.85;5.65;;;;;;;-143.83;100.00;62900.06;5019980;28;20184;-60
2022/06/15 09:05:46;;;;;;;5.68;5.47;;;;;;;-143.83;100.00;62900.06;5022626;28;20029;-58
2022/06/15 09:08:14;;;;;;;5.57;5.38;;;;;;;-143.83;100.00;62900.06;5003418;28;20048;-60
2022/06/15 09:10:46;;;;;;;5.47;5.28;;;;;;;-143.83;100.00;62900.06;5018063;28;20028;-61
2022/06/15 09:13:26;;;;;;;5.78;5.57;;;;;;;-143.83;100.00;62900.06;5029957;28;20393;-59
2022/06/15 09:16:47;;;;;;;5.60;5.40;;;;;;;-143.83;100.00;62900.06;5029587;28;20068;-59
2022/06/15 09:19:25;;;;;;;5.63;5.43;;;;;;;-143.83;100.00;62900.06;4967672;28;20538;-59
2022/06/15 09:21:59;;;;;;;5.68;5.47;;;;;;;-143.83;100.00;62900.06;4969721;28;20086;-59
2022/06/15 09:24:32;;;;;;;5.40;5.20;;;;;;;-143.83;100.00;62900.06;5012771;28;20036;-59
2022/06/15 09:27:07;;;;;;;5.35;5.15;;;;;;;-143.83;100.00;62900.06;5030497;28;20025;-60
2022/06/15 09:29:44;;;;;;;5.70;5.50;;;;;;;-143.83;100.00;62900.06;5030850;28;20399;-59
2022/06/15 09:32:21;;;;;;;5.60;5.40;;;;;;;-143.83;100.00;62900.06;5031105;28;20400;-59
2022/06/15 09:35:13;;;;;;;5.72;5.53;;;;;;;-143.83;100.00;62900.06;5031145;28;20582;-60
2022/06/15 09:37:41;;;;;;;5.63;5.43;;;;;;;-143.83;100.00;62900.06;5030449;28;20497;-59
2022/06/15 09:40:08;;;;;;;5.47;5.28;;;;;;;-143.83;100.00;62900.06;5033923;28;20156;-60
2022/06/15 09:42:43;;;;;;;5.80;5.60;;;;;;;-143.83;100.00;62900.06;5033310;28;20155;-59
2022/06/15 09:45:13;;;;;;;5.85;5.65;;;;;;;-143.83;100.00;62900.06;5023258;28;20111;-60
2022/06/15 09:48:06;;;;;;;5.60;5.40;;;;;;;-143.83;100.00;62900.06;5021428;28;20041;-58
2022/06/15 09:50:39;;;;;;;5.63;5.43;;;;;;;-143.83;100.00;62900.06;5027516;28;20115;-58
2022/06/15 09:53:04;;;;;;;5.70;5.50;;;;;;;-143.83;100.00;62900.06;5032321;28;20112;-60
2022/06/15 09:55:33;;;;;;;5.40;5.20;;;;;;;-143.83;100.00;62900.06;5037315;28;20117;-61
2022/06/15 09:57:59;;;;;;;5.68;5.47;;;;;;;-143.83;100.00;62900.06;5030364;28;20032;-60
2022/06/15 10:00:25;;;;;;;5.60;5.40;;;;;;;-143.83;100.00;62900.06;5023872;28;20044;-61
2022/06/15 10:03:00;;;;;;;5.60;5.40;;;;;;;-143.83;100.00;62900.06;5022140;28;20033;-61
2022/06/15 10:05:35;;;;;;;5.68;5.47;;;;;;;-143.83;100.00;62900.06;5032092;28;20068;-60
2022/06/15 10:08:10;;;;;;;5.53;5.32;;;;;;;-143.83;100.00;62900.06;5021752;28;20409;-61
2022/06/15 10:10:58;;;;;;;5.60;5.40;;;;;;;-143.83;100.00;62900.06;5024691;28;20032;-63
2022/06/15 10:13:29;;;;;;;5.80;5.60;;;;;;;-143.83;100.00;62900.06;5021868;28;20037;-62
2022/06/15 10:16:24;;;;;;;5.78;5.57;;;;;;;-143.83;100.00;62900.06;5026004;28;20022;-62
2022/06/15 10:18:53;;;;;;;5.60;5.40;;;;;;;-143.83;100.00;62900.06;5028123;28;20071;-62
2022/06/15 10:21:23;;;;;;;5.60;5.40;;;;;;;-143.83;100.00;62900.06;5027251;28;20128;-63
2022/06/15 10:23:58;;;;;;;5.70;5.50;;;;;;;-143.83;100.00;62900.06;5027668;28;20040;-63
2022/06/15 10:26:45;;;;;;;5.70;5.50;;;;;;;-143.83;100.00;62900.06;5014426;28;20500;-62
2022/06/15 10:29:14;;;;;;;5.53;5.32;;;;;;;-143.83;100.00;62900.06;5035607;28;20033;-62
2022/06/15 10:31:40;;;;;;;5.60;5.40;;;;;;;-143.83;100.00;62900.06;5023705;28;20511;-62
2022/06/15 10:34:49;;;;;;;5.60;5.40;;;;;;;-143.83;100.00;62900.06;5026740;28;20086;-62
2022/06/15 10:37:29;;;;;;;5.63;5.43;;;;;;;-143.83;100.00;62900.06;5026674;28;20029;-63
2022/06/15 10:40:17;;;;;;;5.53;5.32;;;;;;;-143.83;100.00;62900.06;5014588;28;20128;-62
2022/06/15 10:42:50;;;;;;;5.60;5.40;;;;;;;-143.83;100.00;62900.06;5027269;28;20128;-62
2022/06/15 10:45:32;;;;;;;5.78;5.57;;;;;;;-143.83;100.00;62900.06;5025220;28;20044;-62
2022/06/15 10:48:16;;;;;;;5.60;5.40;;;;;;;-143.83;100.00;62900.06;5027138;28;20050;-61
2022/06/15 10:50:47;;;;;;;5.70;5.50;;;;;;;-143.83;100.00;62900.06;5020211;28;20026;-61
2022/06/15 10:53:30;;;;;;;5.60;5.40;;;;;;;-143.83;100.00;62900.06;5024219;28;20591;-61
2022/06/15 11:02:09;;;;;;;5.70;5.50;;;;;;;-143.83;100.00;62900.06;5025902;28;20675;-62
2022/06/15 11:04:37;;;;;;;5.63;5.43;;;;;;;-143.83;100.00;62900.06;5015864;28;20048;-61
2022/06/15 11:07:24;;;;;;;5.50;5.30;;;;;;;-143.83;100.00;62900.06;5027128;28;20030;-62
2022/06/15 11:09:55;;;;;;;5.50;5.30;;;;;;;-143.83;100.00;62900.06;5022362;28;20041;-62
2022/06/15 11:12:47;;;;;;;5.50;5.30;;;;;;;-143.83;100.00;62900.06;5028982;28;20033;-62
2022/06/15 11:15:13;;;;;;;5.40;5.20;;;;;;;-143.83;100.00;62900.06;5015012;28;20442;-60
2022/06/15 11:18:05;;;;;;;5.50;5.30;;;;;;;-143.83;100.00;62900.06;5023664;28;20029;-61
2022/06/15 11:20:57;;;;;;;5.72;5.53;;;;;;;-143.83;100.00;62900.06;5016641;28;20034;-61
2022/06/15 11:23:54;;;;;;;5.45;5.25;;;;;;;-143.83;100.00;62900.06;5021846;28;20030;-62
2022/06/15 11:26:53;;;;;;;5.50;5.30;;;;;;;-143.83;100.00;62900.06;5030228;28;20021;-62
2022/06/15 11:29:46;;;;;;;5.50;5.30;;;;;;;-143.83;100.00;62900.06;5024667;28;20086;-62
2022/06/15 11:32:42;;;;;;;5.47;5.28;;;;;;;-143.83;100.00;62900.06;5021334;28;20021;-62
2022/06/15 11:35:13;;;;;;;5.53;5.32;;;;;;;-143.83;100.00;62900.06;5022609;28;20100;-61
2022/06/15 11:37:55;;;;;;;5.50;5.30;;;;;;;-143.83;100.00;62900.06;5030454;28;20025;-61